sensor_id;sensor_type;location;lat;lon;timestamp;temperature;humidity
15481;DHT22;7842;50.904;6.670;2022-11-04T00:01:41;11.30;99.90
15481;DHT22;7842;50.904;6.670;2022-11-04T00:04:08;11.20;99.90
15481;DHT22;7842;50.904;6.670;2022-11-04T00:06:34;11.20;99.90
15481;DHT22;7842;50.904;6.670;2022-11-04T00:09:00;11.20;99.90
15481;DHT22;7842;50.904;6.670;2022-11-04T00:11:26;11.20;99.90
15481;DHT22;7842;50.904;6.670;2022-11-04T00:14:12;11.20;99.90
15481;DHT22;7842;50.904;6.670;2022-11-04T00:16:37;11.20;99.90
15481;DHT22;7842;50.904;6.670;2022-11-04T00:19:22;11.20;99.90
15481;DHT22;7842;50.904;6.670;2022-11-04T00:21:48;11.20;99.90
15481;DHT22;7842;50.904;6.670;2022-11-04T00:24:33;11.20;99.90
15481;DHT22;7842;50.904;6.670;2022-11-04T00:27:12;11.20;99.90
15481;DHT22;7842;50.904;6.670;2022-11-04T00:29:57;11.20;99.90
15481;DHT22;7842;50.904;6.670;2022-11-04T00:32:23;11.20;99.90
15481;DHT22;7842;50.904;6.670;2022-11-04T00:35:08;11.20;99.90
15481;DHT22;7842;50.904;6.670;2022-11-04T00:37:38;11.30;99.90
15481;DHT22;7842;50.904;6.670;2022-11-04T00:40:05;11.30;99.90
15481;DHT22;7842;50.904;6.670;2022-11-04T00:42:31;11.30;99.90
15481;DHT22;7842;50.904;6.670;2022-11-04T00:44:56;11.30;99.90
15481;DHT22;7842;50.904;6.670;2022-11-04T00:47:22;11.30;99.90
15481;DHT22;7842;50.904;6.670;2022-11-04T00:49:48;11.50;99.90
15481;DHT22;7842;50.904;6.670;2022-11-04T00:52:13;11.30;99.90
15481;DHT22;7842;50.904;6.670;2022-11-04T00:54:39;11.30;99.90
15481;DHT22;7842;50.904;6.670;2022-11-04T00:57:04;11.30;99.90
15481;DHT22;7842;50.904;6.670;2022-11-04T00:59:33;11.30;99.90
15481;DHT22;7842;50.904;6.670;2022-11-04T01:01:58;11.30;99.90
15481;DHT22;7842;50.904;6.670;2022-11-04T01:04:24;11.20;99.90
15481;DHT22;7842;50.904;6.670;2022-11-04T01:06:49;11.20;99.90
15481;DHT22;7842;50.904;6.670;2022-11-04T01:09:15;11.20;99.90
15481;DHT22;7842;50.904;6.670;2022-11-04T01:11:40;11.10;99.90
15481;DHT22;7842;50.904;6.670;2022-11-04T01:14:06;11.10;99.90
15481;DHT22;7842;50.904;6.670;2022-11-04T01:16:32;11.00;99.90
15481;DHT22;7842;50.904;6.670;2022-11-04T01:18:57;10.90;99.90
15481;DHT22;7842;50.904;6.670;2022-11-04T01:21:23;10.40;99.90
15481;DHT22;7842;50.904;6.670;2022-11-04T01:23:49;10.80;99.90
15481;DHT22;7842;50.904;6.670;2022-11-04T01:26:18;10.80;99.90
15481;DHT22;7842;50.904;6.670;2022-11-04T01:28:44;10.70;99.90
15481;DHT22;7842;50.904;6.670;2022-11-04T01:31:12;10.70;99.90
15481;DHT22;7842;50.904;6.670;2022-11-04T01:33:38;10.60;99.90
15481;DHT22;7842;50.904;6.670;2022-11-04T01:36:05;10.60;99.90
15481;DHT22;7842;50.904;6.670;2022-11-04T01:38:31;10.60;99.90
15481;DHT22;7842;50.904;6.670;2022-11-04T01:40:57;10.50;99.90
15481;DHT22;7842;50.904;6.670;2022-11-04T01:43:48;10.40;99.90
15481;DHT22;7842;50.904;6.670;2022-11-04T01:46:31;10.40;99.90
15481;DHT22;7842;50.904;6.670;2022-11-04T01:51:41;10.30;99.90
15481;DHT22;7842;50.904;6.670;2022-11-04T01:54:09;10.30;99.90
15481;DHT22;7842;50.904;6.670;2022-11-04T01:56:36;10.30;99.90
15481;DHT22;7842;50.904;6.670;2022-11-04T01:59:06;10.20;99.90
15481;DHT22;7842;50.904;6.670;2022-11-04T02:01:33;10.20;99.90
15481;DHT22;7842;50.904;6.670;2022-11-04T02:04:00;10.20;99.90
15481;DHT22;7842;50.904;6.670;2022-11-04T02:06:50;10.20;99.90
15481;DHT22;7842;50.904;6.670;2022-11-04T02:09:17;10.10;99.90
15481;DHT22;7842;50.904;6.670;2022-11-04T02:11:44;10.10;99.90
15481;DHT22;7842;50.904;6.670;2022-11-04T02:14:29;10.10;99.90
15481;DHT22;7842;50.904;6.670;2022-11-04T02:17:21;10.00;99.90
15481;DHT22;7842;50.904;6.670;2022-11-04T02:20:14;10.00;99.90
15481;DHT22;7842;50.904;6.670;2022-11-04T02:33:59;9.80;99.90
15481;DHT22;7842;50.904;6.670;2022-11-04T02:39:43;9.70;99.90
15481;DHT22;7842;50.904;6.670;2022-11-04T02:44:54;9.70;99.90
15481;DHT22;7842;50.904;6.670;2022-11-04T02:47:26;9.70;99.90
15481;DHT22;7842;50.904;6.670;2022-11-04T02:50:07;9.60;99.90
15481;DHT22;7842;50.904;6.670;2022-11-04T02:52:47;9.60;99.90
15481;DHT22;7842;50.904;6.670;2022-11-04T02:55:22;9.60;99.90
15481;DHT22;7842;50.904;6.670;2022-11-04T02:57:51;9.60;99.90
15481;DHT22;7842;50.904;6.670;2022-11-04T03:00:18;9.60;99.90
15481;DHT22;7842;50.904;6.670;2022-11-04T03:02:56;9.70;99.90
15481;DHT22;7842;50.904;6.670;2022-11-04T03:05:33;9.70;99.90
15481;DHT22;7842;50.904;6.670;2022-11-04T03:08:03;9.50;99.90
15481;DHT22;7842;50.904;6.670;2022-11-04T03:10:35;9.30;99.90
15481;DHT22;7842;50.904;6.670;2022-11-04T03:13:13;9.20;99.90
15481;DHT22;7842;50.904;6.670;2022-11-04T03:15:47;9.20;99.90
15481;DHT22;7842;50.904;6.670;2022-11-04T03:18:41;9.10;99.90
15481;DHT22;7842;50.904;6.670;2022-11-04T03:21:10;9.10;99.90
15481;DHT22;7842;50.904;6.670;2022-11-04T03:23:37;9.00;99.90
15481;DHT22;7842;50.904;6.670;2022-11-04T03:26:37;8.90;99.90
15481;DHT22;7842;50.904;6.670;2022-11-04T03:31:46;9.00;99.90
15481;DHT22;7842;50.904;6.670;2022-11-04T03:34:14;9.00;99.90
15481;DHT22;7842;50.904;6.670;2022-11-04T03:36:40;9.00;99.90
15481;DHT22;7842;50.904;6.670;2022-11-04T03:39:06;9.00;99.90
15481;DHT22;7842;50.904;6.670;2022-11-04T03:41:47;9.00;99.90
15481;DHT22;7842;50.904;6.670;2022-11-04T03:44:13;8.90;99.90
15481;DHT22;7842;50.904;6.670;2022-11-04T03:46:39;8.90;99.90
15481;DHT22;7842;50.904;6.670;2022-11-04T03:49:06;8.80;99.90
15481;DHT22;7842;50.904;6.670;2022-11-04T03:51:32;8.70;99.90
15481;DHT22;7842;50.904;6.670;2022-11-04T03:53:58;8.60;99.90
15481;DHT22;7842;50.904;6.670;2022-11-04T03:56:49;8.50;99.90
15481;DHT22;7842;50.904;6.670;2022-11-04T04:02:06;8.40;99.90
15481;DHT22;7842;50.904;6.670;2022-11-04T04:04:38;8.50;99.90
15481;DHT22;7842;50.904;6.670;2022-11-04T04:07:20;8.50;99.90
15481;DHT22;7842;50.904;6.670;2022-11-04T04:10:15;8.40;99.90
15481;DHT22;7842;50.904;6.670;2022-11-04T04:13:15;8.40;99.90
15481;DHT22;7842;50.904;6.670;2022-11-04T04:16:00;8.40;99.90
15481;DHT22;7842;50.904;6.670;2022-11-04T04:18:35;8.40;99.90
15481;DHT22;7842;50.904;6.670;2022-11-04T04:21:05;8.30;99.90
15481;DHT22;7842;50.904;6.670;2022-11-04T04:23:33;8.30;99.90
15481;DHT22;7842;50.904;6.670;2022-11-04T04:26:19;8.20;99.90
15481;DHT22;7842;50.904;6.670;2022-11-04T04:29:06;8.20;99.90
15481;DHT22;7842;50.904;6.670;2022-11-04T04:31:35;8.10;99.90
15481;DHT22;7842;50.904;6.670;2022-11-04T04:34:21;8.10;99.90
15481;DHT22;7842;50.904;6.670;2022-11-04T04:36:56;8.10;99.90
15481;DHT22;7842;50.904;6.670;2022-11-04T04:39:28;8.00;99.90
15481;DHT22;7842;50.904;6.670;2022-11-04T04:42:15;8.00;99.90
15481;DHT22;7842;50.904;6.670;2022-11-04T04:45:01;7.90;99.90
15481;DHT22;7842;50.904;6.670;2022-11-04T04:47:50;8.00;99.90
15481;DHT22;7842;50.904;6.670;2022-11-04T04:50:18;8.00;99.90
15481;DHT22;7842;50.904;6.670;2022-11-04T04:52:47;8.00;99.90
15481;DHT22;7842;50.904;6.670;2022-11-04T04:55:14;7.90;99.90
15481;DHT22;7842;50.904;6.670;2022-11-04T04:57:39;7.90;99.90
15481;DHT22;7842;50.904;6.670;2022-11-04T05:00:07;7.80;99.90
15481;DHT22;7842;50.904;6.670;2022-11-04T05:02:33;7.80;99.90
15481;DHT22;7842;50.904;6.670;2022-11-04T05:04:59;7.70;99.90
15481;DHT22;7842;50.904;6.670;2022-11-04T05:07:26;7.80;99.90
15481;DHT22;7842;50.904;6.670;2022-11-04T05:09:51;7.80;99.90
15481;DHT22;7842;50.904;6.670;2022-11-04T05:12:17;7.80;99.90
15481;DHT22;7842;50.904;6.670;2022-11-04T05:14:43;7.70;99.90
15481;DHT22;7842;50.904;6.670;2022-11-04T05:17:08;7.70;99.90
15481;DHT22;7842;50.904;6.670;2022-11-04T05:19:34;7.70;99.90
15481;DHT22;7842;50.904;6.670;2022-11-04T05:21:59;7.70;99.90
15481;DHT22;7842;50.904;6.670;2022-11-04T05:24:25;7.80;99.90
15481;DHT22;7842;50.904;6.670;2022-11-04T05:26:51;7.80;99.90
15481;DHT22;7842;50.904;6.670;2022-11-04T05:29:17;8.10;99.90
15481;DHT22;7842;50.904;6.670;2022-11-04T05:31:42;7.80;99.90
15481;DHT22;7842;50.904;6.670;2022-11-04T05:34:12;7.80;99.90
15481;DHT22;7842;50.904;6.670;2022-11-04T05:36:38;7.70;99.90
15481;DHT22;7842;50.904;6.670;2022-11-04T05:39:04;7.70;99.90
15481;DHT22;7842;50.904;6.670;2022-11-04T05:41:31;7.80;99.90
15481;DHT22;7842;50.904;6.670;2022-11-04T05:44:01;7.90;99.90
15481;DHT22;7842;50.904;6.670;2022-11-04T05:46:28;7.80;99.90
15481;DHT22;7842;50.904;6.670;2022-11-04T05:48:54;7.80;99.90
15481;DHT22;7842;50.904;6.670;2022-11-04T05:51:22;7.70;99.90
15481;DHT22;7842;50.904;6.670;2022-11-04T05:53:48;7.80;99.90
15481;DHT22;7842;50.904;6.670;2022-11-04T05:56:14;7.80;99.90
15481;DHT22;7842;50.904;6.670;2022-11-04T05:58:39;7.80;99.90
15481;DHT22;7842;50.904;6.670;2022-11-04T06:01:12;7.80;99.90
15481;DHT22;7842;50.904;6.670;2022-11-04T06:03:38;7.80;99.90
15481;DHT22;7842;50.904;6.670;2022-11-04T06:06:04;7.70;99.90
15481;DHT22;7842;50.904;6.670;2022-11-04T06:08:30;7.70;99.90
15481;DHT22;7842;50.904;6.670;2022-11-04T06:10:56;7.70;99.90
15481;DHT22;7842;50.904;6.670;2022-11-04T06:13:22;7.70;99.90
15481;DHT22;7842;50.904;6.670;2022-11-04T06:15:47;7.60;99.90
15481;DHT22;7842;50.904;6.670;2022-11-04T06:18:13;7.60;99.90
15481;DHT22;7842;50.904;6.670;2022-11-04T06:20:38;7.60;99.90
15481;DHT22;7842;50.904;6.670;2022-11-04T06:23:04;7.50;99.90
15481;DHT22;7842;50.904;6.670;2022-11-04T06:25:29;7.50;99.90
15481;DHT22;7842;50.904;6.670;2022-11-04T06:27:55;7.40;99.90
15481;DHT22;7842;50.904;6.670;2022-11-04T06:30:21;7.40;99.90
15481;DHT22;7842;50.904;6.670;2022-11-04T06:32:46;7.40;99.90
15481;DHT22;7842;50.904;6.670;2022-11-04T06:35:12;7.40;99.90
15481;DHT22;7842;50.904;6.670;2022-11-04T06:37:37;7.30;99.90
15481;DHT22;7842;50.904;6.670;2022-11-04T06:40:03;7.30;99.90
15481;DHT22;7842;50.904;6.670;2022-11-04T06:42:29;7.20;99.90
15481;DHT22;7842;50.904;6.670;2022-11-04T06:44:55;7.20;99.90
15481;DHT22;7842;50.904;6.670;2022-11-04T06:47:20;7.20;99.90
15481;DHT22;7842;50.904;6.670;2022-11-04T06:49:46;7.20;99.90
15481;DHT22;7842;50.904;6.670;2022-11-04T06:52:11;7.40;99.90
15481;DHT22;7842;50.904;6.670;2022-11-04T06:54:37;7.50;99.90
15481;DHT22;7842;50.904;6.670;2022-11-04T06:57:02;7.50;99.90
15481;DHT22;7842;50.904;6.670;2022-11-04T06:59:28;7.50;99.90
15481;DHT22;7842;50.904;6.670;2022-11-04T07:01:54;7.60;99.90
15481;DHT22;7842;50.904;6.670;2022-11-04T07:04:19;7.60;99.90
15481;DHT22;7842;50.904;6.670;2022-11-04T07:06:45;7.70;99.90
15481;DHT22;7842;50.904;6.670;2022-11-04T07:09:14;7.70;99.90
15481;DHT22;7842;50.904;6.670;2022-11-04T07:11:41;7.80;99.90
15481;DHT22;7842;50.904;6.670;2022-11-04T07:14:07;7.80;99.90
15481;DHT22;7842;50.904;6.670;2022-11-04T07:16:33;7.90;99.90
15481;DHT22;7842;50.904;6.670;2022-11-04T07:18:59;7.90;99.90
15481;DHT22;7842;50.904;6.670;2022-11-04T07:21:24;8.00;99.90
15481;DHT22;7842;50.904;6.670;2022-11-04T07:23:50;8.00;99.90
15481;DHT22;7842;50.904;6.670;2022-11-04T07:26:16;8.10;99.90
15481;DHT22;7842;50.904;6.670;2022-11-04T07:28:41;8.20;99.90
15481;DHT22;7842;50.904;6.670;2022-11-04T07:31:08;8.10;99.90
15481;DHT22;7842;50.904;6.670;2022-11-04T07:33:34;8.20;99.90
15481;DHT22;7842;50.904;6.670;2022-11-04T07:36:04;8.50;99.90
15481;DHT22;7842;50.904;6.670;2022-11-04T07:38:30;8.20;99.90
15481;DHT22;7842;50.904;6.670;2022-11-04T07:40:57;8.90;99.90
15481;DHT22;7842;50.904;6.670;2022-11-04T07:43:23;8.30;99.90
15481;DHT22;7842;50.904;6.670;2022-11-04T07:46:02;8.40;99.90
15481;DHT22;7842;50.904;6.670;2022-11-04T07:48:28;8.40;99.90
15481;DHT22;7842;50.904;6.670;2022-11-04T07:50:55;8.50;99.90
15481;DHT22;7842;50.904;6.670;2022-11-04T07:53:21;8.50;99.90
15481;DHT22;7842;50.904;6.670;2022-11-04T07:55:46;8.60;99.90
15481;DHT22;7842;50.904;6.670;2022-11-04T07:58:16;8.70;99.90
15481;DHT22;7842;50.904;6.670;2022-11-04T08:00:41;8.70;99.90
15481;DHT22;7842;50.904;6.670;2022-11-04T08:03:07;8.80;99.90
15481;DHT22;7842;50.904;6.670;2022-11-04T08:05:33;8.80;99.90
15481;DHT22;7842;50.904;6.670;2022-11-04T08:07:58;8.90;99.90
15481;DHT22;7842;50.904;6.670;2022-11-04T08:10:24;8.90;99.90
15481;DHT22;7842;50.904;6.670;2022-11-04T08:12:50;8.90;99.90
15481;DHT22;7842;50.904;6.670;2022-11-04T08:15:17;9.00;99.90
15481;DHT22;7842;50.904;6.670;2022-11-04T08:17:42;9.10;99.90
15481;DHT22;7842;50.904;6.670;2022-11-04T08:20:08;9.20;99.90
15481;DHT22;7842;50.904;6.670;2022-11-04T08:22:34;9.20;99.90
15481;DHT22;7842;50.904;6.670;2022-11-04T08:25:00;9.20;99.90
15481;DHT22;7842;50.904;6.670;2022-11-04T08:27:25;9.20;99.90
15481;DHT22;7842;50.904;6.670;2022-11-04T08:29:51;9.30;99.90
15481;DHT22;7842;50.904;6.670;2022-11-04T08:32:17;9.30;99.90
15481;DHT22;7842;50.904;6.670;2022-11-04T08:34:43;9.30;99.90
15481;DHT22;7842;50.904;6.670;2022-11-04T08:37:11;9.30;99.90
15481;DHT22;7842;50.904;6.670;2022-11-04T08:39:37;9.40;99.90
15481;DHT22;7842;50.904;6.670;2022-11-04T08:42:02;9.40;99.90
15481;DHT22;7842;50.904;6.670;2022-11-04T08:44:28;9.40;99.90
15481;DHT22;7842;50.904;6.670;2022-11-04T08:46:54;9.40;99.90
15481;DHT22;7842;50.904;6.670;2022-11-04T08:49:19;9.40;99.90
15481;DHT22;7842;50.904;6.670;2022-11-04T08:51:45;9.50;99.90
15481;DHT22;7842;50.904;6.670;2022-11-04T08:54:13;9.60;99.90
15481;DHT22;7842;50.904;6.670;2022-11-04T08:56:40;9.60;99.90
15481;DHT22;7842;50.904;6.670;2022-11-04T08:59:06;9.60;99.90
15481;DHT22;7842;50.904;6.670;2022-11-04T09:01:34;9.60;99.90
15481;DHT22;7842;50.904;6.670;2022-11-04T09:04:00;9.60;99.90
15481;DHT22;7842;50.904;6.670;2022-11-04T09:06:29;9.70;99.90
15481;DHT22;7842;50.904;6.670;2022-11-04T09:08:55;9.80;99.90
15481;DHT22;7842;50.904;6.670;2022-11-04T09:11:22;9.90;99.90
15481;DHT22;7842;50.904;6.670;2022-11-04T09:13:49;9.90;99.90
15481;DHT22;7842;50.904;6.670;2022-11-04T09:16:15;10.10;99.90
15481;DHT22;7842;50.904;6.670;2022-11-04T09:18:40;10.20;99.90
15481;DHT22;7842;50.904;6.670;2022-11-04T09:21:09;10.30;99.90
15481;DHT22;7842;50.904;6.670;2022-11-04T09:23:36;10.30;99.90
15481;DHT22;7842;50.904;6.670;2022-11-04T09:26:10;10.30;99.90
15481;DHT22;7842;50.904;6.670;2022-11-04T09:28:37;10.30;99.90
15481;DHT22;7842;50.904;6.670;2022-11-04T09:31:05;10.40;99.90
15481;DHT22;7842;50.904;6.670;2022-11-04T09:33:31;10.50;99.90
15481;DHT22;7842;50.904;6.670;2022-11-04T09:35:57;10.60;99.90
15481;DHT22;7842;50.904;6.670;2022-11-04T09:38:26;10.70;99.90
15481;DHT22;7842;50.904;6.670;2022-11-04T09:40:51;10.70;99.90
15481;DHT22;7842;50.904;6.670;2022-11-04T09:46:11;10.90;99.90
15481;DHT22;7842;50.904;6.670;2022-11-04T09:48:47;10.80;99.90
15481;DHT22;7842;50.904;6.670;2022-11-04T09:51:16;10.80;99.90
15481;DHT22;7842;50.904;6.670;2022-11-04T09:53:46;10.90;99.90
15481;DHT22;7842;50.904;6.670;2022-11-04T09:56:32;11.10;99.90
15481;DHT22;7842;50.904;6.670;2022-11-04T09:59:02;11.20;99.90
15481;DHT22;7842;50.904;6.670;2022-11-04T10:04:51;11.40;99.90
15481;DHT22;7842;50.904;6.670;2022-11-04T10:07:40;11.40;99.90
15481;DHT22;7842;50.904;6.670;2022-11-04T10:10:27;11.50;99.90
15481;DHT22;7842;50.904;6.670;2022-11-04T10:16:06;11.60;99.90
15481;DHT22;7842;50.904;6.670;2022-11-04T10:21:34;11.80;99.90
15481;DHT22;7842;50.904;6.670;2022-11-04T10:24:18;11.80;99.90
15481;DHT22;7842;50.904;6.670;2022-11-04T10:26:46;11.90;99.90
15481;DHT22;7842;50.904;6.670;2022-11-04T10:29:47;11.80;99.90
15481;DHT22;7842;50.904;6.670;2022-11-04T10:32:36;11.80;99.90
15481;DHT22;7842;50.904;6.670;2022-11-04T10:35:12;11.90;99.90
15481;DHT22;7842;50.904;6.670;2022-11-04T10:37:39;12.00;99.90
15481;DHT22;7842;50.904;6.670;2022-11-04T10:40:25;12.00;99.90
15481;DHT22;7842;50.904;6.670;2022-11-04T10:42:54;12.00;99.90
15481;DHT22;7842;50.904;6.670;2022-11-04T10:45:28;12.10;99.90
15481;DHT22;7842;50.904;6.670;2022-11-04T10:47:59;12.00;99.90
15481;DHT22;7842;50.904;6.670;2022-11-04T10:50:38;12.30;99.90
15481;DHT22;7842;50.904;6.670;2022-11-04T10:53:12;12.40;99.90
15481;DHT22;7842;50.904;6.670;2022-11-04T10:55:46;12.40;99.90
15481;DHT22;7842;50.904;6.670;2022-11-04T10:58:23;12.60;99.90
15481;DHT22;7842;50.904;6.670;2022-11-04T11:00:50;12.50;99.90
15481;DHT22;7842;50.904;6.670;2022-11-04T11:03:24;12.60;99.90
15481;DHT22;7842;50.904;6.670;2022-11-04T11:06:10;12.60;99.90
15481;DHT22;7842;50.904;6.670;2022-11-04T11:08:38;12.70;99.90
15481;DHT22;7842;50.904;6.670;2022-11-04T11:11:07;12.60;99.90
15481;DHT22;7842;50.904;6.670;2022-11-04T11:13:39;12.70;99.90
15481;DHT22;7842;50.904;6.670;2022-11-04T11:18:37;12.80;99.90
15481;DHT22;7842;50.904;6.670;2022-11-04T11:21:14;12.80;99.90
15481;DHT22;7842;50.904;6.670;2022-11-04T11:23:44;12.80;99.90
15481;DHT22;7842;50.904;6.670;2022-11-04T11:26:27;12.90;99.90
15481;DHT22;7842;50.904;6.670;2022-11-04T11:28:55;13.00;99.90
15481;DHT22;7842;50.904;6.670;2022-11-04T11:31:22;13.10;99.90
15481;DHT22;7842;50.904;6.670;2022-11-04T11:33:59;13.20;99.90
15481;DHT22;7842;50.904;6.670;2022-11-04T11:36:32;13.10;99.90
15481;DHT22;7842;50.904;6.670;2022-11-04T11:41:53;13.10;99.90
15481;DHT22;7842;50.904;6.670;2022-11-04T11:44:37;13.30;99.90
15481;DHT22;7842;50.904;6.670;2022-11-04T11:52:39;13.00;99.90
15481;DHT22;7842;50.904;6.670;2022-11-04T11:58:21;12.80;99.90
15481;DHT22;7842;50.904;6.670;2022-11-04T12:00:57;12.70;99.90
15481;DHT22;7842;50.904;6.670;2022-11-04T12:03:30;12.80;99.90
15481;DHT22;7842;50.904;6.670;2022-11-04T12:14:09;12.70;99.90
15481;DHT22;7842;50.904;6.670;2022-11-04T12:24:33;12.90;99.90
15481;DHT22;7842;50.904;6.670;2022-11-04T12:27:28;12.90;99.90
15481;DHT22;7842;50.904;6.670;2022-11-04T12:43:16;13.00;99.90
15481;DHT22;7842;50.904;6.670;2022-11-04T12:45:58;13.00;99.90
15481;DHT22;7842;50.904;6.670;2022-11-04T12:48:31;13.10;99.90
15481;DHT22;7842;50.904;6.670;2022-11-04T12:53:32;13.00;99.90
15481;DHT22;7842;50.904;6.670;2022-11-04T12:56:10;13.10;99.90
15481;DHT22;7842;50.904;6.670;2022-11-04T13:01:46;13.00;99.90
15481;DHT22;7842;50.904;6.670;2022-11-04T13:04:22;13.10;99.90
15481;DHT22;7842;50.904;6.670;2022-11-04T13:07:30;13.20;99.90
15481;DHT22;7842;50.904;6.670;2022-11-04T13:10:05;13.30;99.90
15481;DHT22;7842;50.904;6.670;2022-11-04T13:12:38;13.20;99.90
15481;DHT22;7842;50.904;6.670;2022-11-04T13:17:38;13.20;99.90
15481;DHT22;7842;50.904;6.670;2022-11-04T13:22:40;13.20;99.90
15481;DHT22;7842;50.904;6.670;2022-11-04T13:27:49;13.20;99.90
15481;DHT22;7842;50.904;6.670;2022-11-04T13:33:19;13.10;99.90
15481;DHT22;7842;50.904;6.670;2022-11-04T13:36:02;13.10;99.90
15481;DHT22;7842;50.904;6.670;2022-11-04T13:38:38;13.00;99.90
15481;DHT22;7842;50.904;6.670;2022-11-04T13:44:11;12.70;99.90
15481;DHT22;7842;50.904;6.670;2022-11-04T13:46:37;12.60;99.90
15481;DHT22;7842;50.904;6.670;2022-11-04T13:51:44;12.50;99.90
15481;DHT22;7842;50.904;6.670;2022-11-04T13:54:29;12.50;99.90
15481;DHT22;7842;50.904;6.670;2022-11-04T13:57:11;12.70;99.90
15481;DHT22;7842;50.904;6.670;2022-11-04T13:59:39;12.40;99.90
15481;DHT22;7842;50.904;6.670;2022-11-04T14:02:22;12.40;99.90
15481;DHT22;7842;50.904;6.670;2022-11-04T14:04:49;12.50;99.90
15481;DHT22;7842;50.904;6.670;2022-11-04T14:07:16;12.50;99.90
15481;DHT22;7842;50.904;6.670;2022-11-04T14:15:03;12.10;99.90
15481;DHT22;7842;50.904;6.670;2022-11-04T14:19:59;12.20;99.90
15481;DHT22;7842;50.904;6.670;2022-11-04T14:27:47;12.00;99.90
15481;DHT22;7842;50.904;6.670;2022-11-04T14:30:49;12.00;99.90
15481;DHT22;7842;50.904;6.670;2022-11-04T14:33:48;12.00;99.90
15481;DHT22;7842;50.904;6.670;2022-11-04T14:38:56;12.00;99.90
15481;DHT22;7842;50.904;6.670;2022-11-04T14:41:49;12.00;99.90
15481;DHT22;7842;50.904;6.670;2022-11-04T14:44:31;12.00;99.90
15481;DHT22;7842;50.904;6.670;2022-11-04T14:47:24;12.00;99.90
15481;DHT22;7842;50.904;6.670;2022-11-04T14:50:02;12.00;99.90
15481;DHT22;7842;50.904;6.670;2022-11-04T14:57:47;12.00;99.90
15481;DHT22;7842;50.904;6.670;2022-11-04T15:02:47;12.00;99.90
15481;DHT22;7842;50.904;6.670;2022-11-04T15:05:24;12.00;99.90
15481;DHT22;7842;50.904;6.670;2022-11-04T15:07:50;12.00;99.90
15481;DHT22;7842;50.904;6.670;2022-11-04T15:10:25;12.00;99.90
15481;DHT22;7842;50.904;6.670;2022-11-04T15:12:56;12.00;99.90
15481;DHT22;7842;50.904;6.670;2022-11-04T15:18:00;11.90;99.90
15481;DHT22;7842;50.904;6.670;2022-11-04T15:20:28;11.90;99.90
15481;DHT22;7842;50.904;6.670;2022-11-04T15:22:59;11.90;99.90
15481;DHT22;7842;50.904;6.670;2022-11-04T15:25:26;11.90;99.90
15481;DHT22;7842;50.904;6.670;2022-11-04T15:27:53;11.90;99.90
15481;DHT22;7842;50.904;6.670;2022-11-04T15:30:20;11.90;99.90
15481;DHT22;7842;50.904;6.670;2022-11-04T15:32:55;11.90;99.90
15481;DHT22;7842;50.904;6.670;2022-11-04T15:35:21;11.80;99.90
15481;DHT22;7842;50.904;6.670;2022-11-04T15:37:48;11.80;99.90
15481;DHT22;7842;50.904;6.670;2022-11-04T15:40:14;11.80;99.90
15481;DHT22;7842;50.904;6.670;2022-11-04T15:42:42;11.80;99.90
15481;DHT22;7842;50.904;6.670;2022-11-04T15:47:46;11.80;99.90
15481;DHT22;7842;50.904;6.670;2022-11-04T15:50:21;11.80;99.90
15481;DHT22;7842;50.904;6.670;2022-11-04T15:52:53;11.80;99.90
15481;DHT22;7842;50.904;6.670;2022-11-04T15:55:22;11.70;99.90
15481;DHT22;7842;50.904;6.670;2022-11-04T15:57:48;11.80;99.90
15481;DHT22;7842;50.904;6.670;2022-11-04T16:02:46;11.80;99.90
15481;DHT22;7842;50.904;6.670;2022-11-04T16:05:19;11.70;99.90
15481;DHT22;7842;50.904;6.670;2022-11-04T16:07:48;11.70;99.90
15481;DHT22;7842;50.904;6.670;2022-11-04T16:10:23;11.70;99.90
15481;DHT22;7842;50.904;6.670;2022-11-04T16:12:55;11.80;99.90
15481;DHT22;7842;50.904;6.670;2022-11-04T16:15:35;11.80;99.90
15481;DHT22;7842;50.904;6.670;2022-11-04T16:18:03;11.70;99.90
15481;DHT22;7842;50.904;6.670;2022-11-04T16:20:30;11.60;99.90
15481;DHT22;7842;50.904;6.670;2022-11-04T16:23:00;11.60;99.90
15481;DHT22;7842;50.904;6.670;2022-11-04T16:25:32;11.60;99.90
15481;DHT22;7842;50.904;6.670;2022-11-04T16:27:59;11.50;99.90
15481;DHT22;7842;50.904;6.670;2022-11-04T16:30:24;11.50;99.90
15481;DHT22;7842;50.904;6.670;2022-11-04T16:32:52;11.40;99.90
15481;DHT22;7842;50.904;6.670;2022-11-04T16:35:22;11.40;99.90
15481;DHT22;7842;50.904;6.670;2022-11-04T16:37:52;11.40;99.90
15481;DHT22;7842;50.904;6.670;2022-11-04T16:40:19;11.40;99.90
15481;DHT22;7842;50.904;6.670;2022-11-04T16:42:46;11.50;99.90
15481;DHT22;7842;50.904;6.670;2022-11-04T16:45:33;11.30;99.90
15481;DHT22;7842;50.904;6.670;2022-11-04T16:48:00;11.30;99.90
15481;DHT22;7842;50.904;6.670;2022-11-04T16:50:27;11.30;99.90
15481;DHT22;7842;50.904;6.670;2022-11-04T16:52:52;11.30;99.90
15481;DHT22;7842;50.904;6.670;2022-11-04T16:55:19;11.30;99.90
15481;DHT22;7842;50.904;6.670;2022-11-04T16:57:45;11.30;99.90
15481;DHT22;7842;50.904;6.670;2022-11-04T17:00:23;11.30;99.90
15481;DHT22;7842;50.904;6.670;2022-11-04T17:02:49;11.40;99.90
15481;DHT22;7842;50.904;6.670;2022-11-04T17:05:16;11.50;99.90
15481;DHT22;7842;50.904;6.670;2022-11-04T17:07:42;11.50;99.90
15481;DHT22;7842;50.904;6.670;2022-11-04T17:10:15;11.30;99.90
15481;DHT22;7842;50.904;6.670;2022-11-04T17:12:41;11.30;99.90
15481;DHT22;7842;50.904;6.670;2022-11-04T17:15:07;11.20;99.90
15481;DHT22;7842;50.904;6.670;2022-11-04T17:17:33;11.10;99.90
15481;DHT22;7842;50.904;6.670;2022-11-04T17:19:59;11.10;99.90
15481;DHT22;7842;50.904;6.670;2022-11-04T17:22:24;11.10;99.90
15481;DHT22;7842;50.904;6.670;2022-11-04T17:24:50;11.10;99.90
15481;DHT22;7842;50.904;6.670;2022-11-04T17:27:15;11.00;99.90
15481;DHT22;7842;50.904;6.670;2022-11-04T17:29:41;11.00;99.90
15481;DHT22;7842;50.904;6.670;2022-11-04T17:32:07;10.90;99.90
15481;DHT22;7842;50.904;6.670;2022-11-04T17:34:33;10.90;99.90
15481;DHT22;7842;50.904;6.670;2022-11-04T17:37:00;10.90;99.90
15481;DHT22;7842;50.904;6.670;2022-11-04T17:39:26;10.90;99.90
15481;DHT22;7842;50.904;6.670;2022-11-04T17:41:53;10.90;99.90
15481;DHT22;7842;50.904;6.670;2022-11-04T17:44:37;10.90;99.90
15481;DHT22;7842;50.904;6.670;2022-11-04T17:47:02;11.00;99.90
15481;DHT22;7842;50.904;6.670;2022-11-04T17:49:28;11.00;99.90
15481;DHT22;7842;50.904;6.670;2022-11-04T17:51:57;11.10;99.90
15481;DHT22;7842;50.904;6.670;2022-11-04T17:54:23;11.10;99.90
15481;DHT22;7842;50.904;6.670;2022-11-04T17:56:49;11.10;99.90
15481;DHT22;7842;50.904;6.670;2022-11-04T17:59:15;11.10;99.90
15481;DHT22;7842;50.904;6.670;2022-11-04T18:01:42;11.10;99.90
15481;DHT22;7842;50.904;6.670;2022-11-04T18:04:15;11.10;99.90
15481;DHT22;7842;50.904;6.670;2022-11-04T18:06:41;11.10;99.90
15481;DHT22;7842;50.904;6.670;2022-11-04T18:09:07;11.10;99.90
15481;DHT22;7842;50.904;6.670;2022-11-04T18:11:35;10.90;99.90
15481;DHT22;7842;50.904;6.670;2022-11-04T18:14:20;10.80;99.90
15481;DHT22;7842;50.904;6.670;2022-11-04T18:16:47;10.80;99.90
15481;DHT22;7842;50.904;6.670;2022-11-04T18:19:15;10.80;99.90
15481;DHT22;7842;50.904;6.670;2022-11-04T18:21:41;10.90;99.90
15481;DHT22;7842;50.904;6.670;2022-11-04T18:24:07;10.90;99.90
15481;DHT22;7842;50.904;6.670;2022-11-04T18:26:32;10.90;99.90
15481;DHT22;7842;50.904;6.670;2022-11-04T18:28:59;10.90;99.90